sensor_id;sensor_type;location;lat;lon;timestamp;P1;durP1;ratioP1;P2;durP2;ratioP2
4466;SDS011;2246;42.664;23.278;2022-09-03T00:00:31;11.25;;;7.00;;
4466;SDS011;2246;42.664;23.278;2022-09-03T00:03:01;11.90;;;6.75;;
4466;SDS011;2246;42.664;23.278;2022-09-03T00:05:36;9.15;;;6.35;;
4466;SDS011;2246;42.664;23.278;2022-09-03T00:08:09;12.32;;;7.07;;
4466;SDS011;2246;42.664;23.278;2022-09-03T00:10:47;9.13;;;5.57;;
4466;SDS011;2246;42.664;23.278;2022-09-03T00:13:21;10.52;;;6.90;;
4466;SDS011;2246;42.664;23.278;2022-09-03T00:15:48;11.75;;;7.22;;
4466;SDS011;2246;42.664;23.278;2022-09-03T00:18:16;9.60;;;5.80;;
4466;SDS011;2246;42.664;23.278;2022-09-03T00:20:45;10.25;;;6.45;;
4466;SDS011;2246;42.664;23.278;2022-09-03T00:23:17;9.35;;;6.38;;
4466;SDS011;2246;42.664;23.278;2022-09-03T00:28:12;12.43;;;7.68;;
4466;SDS011;2246;42.664;23.278;2022-09-03T00:30:39;8.35;;;6.45;;
4466;SDS011;2246;42.664;23.278;2022-09-03T00:33:07;11.93;;;6.80;;
4466;SDS011;2246;42.664;23.278;2022-09-03T00:35:45;11.73;;;6.78;;
4466;SDS011;2246;42.664;23.278;2022-09-03T00:38:12;12.32;;;7.05;;
4466;SDS011;2246;42.664;23.278;2022-09-03T00:48:12;20.73;;;9.60;;
4466;SDS011;2246;42.664;23.278;2022-09-03T01:00:47;13.13;;;7.70;;
4466;SDS011;2246;42.664;23.278;2022-09-03T01:03:17;16.35;;;9.68;;
4466;SDS011;2246;42.664;23.278;2022-09-03T01:13:37;12.23;;;7.05;;
4466;SDS011;2246;42.664;23.278;2022-09-03T01:21:08;15.27;;;8.95;;
4466;SDS011;2246;42.664;23.278;2022-09-03T01:29:30;12.10;;;7.75;;
4466;SDS011;2246;42.664;23.278;2022-09-03T01:39:35;10.38;;;7.20;;
4466;SDS011;2246;42.664;23.278;2022-09-03T01:42:10;11.15;;;7.50;;
4466;SDS011;2246;42.664;23.278;2022-09-03T01:55:53;10.15;;;7.00;;
4466;SDS011;2246;42.664;23.278;2022-09-03T01:58:28;8.75;;;6.40;;
4466;SDS011;2246;42.664;23.278;2022-09-03T02:00:56;9.60;;;6.45;;
4466;SDS011;2246;42.664;23.278;2022-09-03T02:03:25;10.32;;;6.32;;
4466;SDS011;2246;42.664;23.278;2022-09-03T02:05:57;10.98;;;6.32;;
4466;SDS011;2246;42.664;23.278;2022-09-03T02:08:23;9.50;;;6.53;;
4466;SDS011;2246;42.664;23.278;2022-09-03T02:10:51;7.25;;;5.97;;
4466;SDS011;2246;42.664;23.278;2022-09-03T02:13:22;8.07;;;6.32;;
4466;SDS011;2246;42.664;23.278;2022-09-03T02:15:50;7.97;;;5.93;;
4466;SDS011;2246;42.664;23.278;2022-09-03T02:18:23;10.18;;;6.22;;
4466;SDS011;2246;42.664;23.278;2022-09-03T02:20:51;16.02;;;6.63;;
4466;SDS011;2246;42.664;23.278;2022-09-03T02:23:18;9.40;;;6.65;;
4466;SDS011;2246;42.664;23.278;2022-09-03T02:25:46;10.80;;;6.18;;
4466;SDS011;2246;42.664;23.278;2022-09-03T02:28:13;10.68;;;6.13;;
4466;SDS011;2246;42.664;23.278;2022-09-03T02:30:40;9.77;;;6.35;;
4466;SDS011;2246;42.664;23.278;2022-09-03T02:33:06;10.00;;;6.53;;
4466;SDS011;2246;42.664;23.278;2022-09-03T02:35:33;9.68;;;5.82;;
4466;SDS011;2246;42.664;23.278;2022-09-03T02:38:16;10.95;;;6.30;;
4466;SDS011;2246;42.664;23.278;2022-09-03T02:40:43;9.98;;;6.20;;
4466;SDS011;2246;42.664;23.278;2022-09-03T02:43:21;9.05;;;6.32;;
4466;SDS011;2246;42.664;23.278;2022-09-03T02:45:49;8.68;;;5.82;;
4466;SDS011;2246;42.664;23.278;2022-09-03T02:48:16;10.30;;;6.72;;
4466;SDS011;2246;42.664;23.278;2022-09-03T02:50:45;9.30;;;6.45;;
4466;SDS011;2246;42.664;23.278;2022-09-03T02:53:11;12.23;;;6.93;;
4466;SDS011;2246;42.664;23.278;2022-09-03T02:55:37;33.33;;;18.90;;
4466;SDS011;2246;42.664;23.278;2022-09-03T02:58:03;11.32;;;7.10;;
4466;SDS011;2246;42.664;23.278;2022-09-03T03:00:33;12.32;;;7.25;;
4466;SDS011;2246;42.664;23.278;2022-09-03T03:03:00;12.95;;;8.00;;
4466;SDS011;2246;42.664;23.278;2022-09-03T03:08:08;11.88;;;7.63;;
4466;SDS011;2246;42.664;23.278;2022-09-03T03:10:34;10.70;;;7.32;;
4466;SDS011;2246;42.664;23.278;2022-09-03T03:13:01;14.60;;;7.50;;
4466;SDS011;2246;42.664;23.278;2022-09-03T03:15:27;12.75;;;7.90;;
4466;SDS011;2246;42.664;23.278;2022-09-03T03:17:56;10.98;;;7.72;;
4466;SDS011;2246;42.664;23.278;2022-09-03T03:20:22;13.80;;;8.45;;
4466;SDS011;2246;42.664;23.278;2022-09-03T03:22:48;12.70;;;7.65;;
4466;SDS011;2246;42.664;23.278;2022-09-03T03:25:14;12.13;;;7.53;;
4466;SDS011;2246;42.664;23.278;2022-09-03T03:27:41;13.40;;;7.28;;
4466;SDS011;2246;42.664;23.278;2022-09-03T03:30:08;13.48;;;7.22;;
4466;SDS011;2246;42.664;23.278;2022-09-03T03:32:35;13.65;;;8.18;;
4466;SDS011;2246;42.664;23.278;2022-09-03T03:35:01;12.95;;;7.82;;
4466;SDS011;2246;42.664;23.278;2022-09-03T03:37:27;9.80;;;7.30;;
4466;SDS011;2246;42.664;23.278;2022-09-03T03:39:53;12.63;;;7.75;;
4466;SDS011;2246;42.664;23.278;2022-09-03T03:42:19;12.68;;;8.52;;
4466;SDS011;2246;42.664;23.278;2022-09-03T03:44:45;10.85;;;7.75;;
4466;SDS011;2246;42.664;23.278;2022-09-03T03:47:11;11.68;;;7.32;;
4466;SDS011;2246;42.664;23.278;2022-09-03T03:49:40;10.02;;;7.32;;
4466;SDS011;2246;42.664;23.278;2022-09-03T03:52:06;12.80;;;8.20;;
4466;SDS011;2246;42.664;23.278;2022-09-03T03:54:32;12.38;;;7.68;;
4466;SDS011;2246;42.664;23.278;2022-09-03T03:56:59;10.73;;;7.57;;
4466;SDS011;2246;42.664;23.278;2022-09-03T03:59:25;10.82;;;7.85;;
4466;SDS011;2246;42.664;23.278;2022-09-03T04:01:53;10.18;;;7.75;;
4466;SDS011;2246;42.664;23.278;2022-09-03T04:04:19;11.25;;;8.32;;
4466;SDS011;2246;42.664;23.278;2022-09-03T04:06:45;13.95;;;8.27;;
4466;SDS011;2246;42.664;23.278;2022-09-03T04:09:11;12.63;;;8.45;;
4466;SDS011;2246;42.664;23.278;2022-09-03T04:11:37;15.95;;;8.65;;
4466;SDS011;2246;42.664;23.278;2022-09-03T04:14:03;14.80;;;7.95;;
4466;SDS011;2246;42.664;23.278;2022-09-03T04:16:30;11.43;;;8.30;;
4466;SDS011;2246;42.664;23.278;2022-09-03T04:18:56;12.52;;;7.50;;
4466;SDS011;2246;42.664;23.278;2022-09-03T04:21:27;13.98;;;7.70;;
4466;SDS011;2246;42.664;23.278;2022-09-03T04:23:53;13.43;;;9.23;;
4466;SDS011;2246;42.664;23.278;2022-09-03T04:26:21;14.13;;;9.75;;
4466;SDS011;2246;42.664;23.278;2022-09-03T04:28:47;12.15;;;8.15;;
4466;SDS011;2246;42.664;23.278;2022-09-03T04:31:14;14.60;;;8.02;;
4466;SDS011;2246;42.664;23.278;2022-09-03T04:33:40;10.95;;;7.53;;
4466;SDS011;2246;42.664;23.278;2022-09-03T04:38:33;13.27;;;8.45;;
4466;SDS011;2246;42.664;23.278;2022-09-03T04:41:00;11.23;;;7.82;;
4466;SDS011;2246;42.664;23.278;2022-09-03T04:43:27;14.35;;;7.53;;
4466;SDS011;2246;42.664;23.278;2022-09-03T04:46:00;11.55;;;7.60;;
4466;SDS011;2246;42.664;23.278;2022-09-03T04:48:26;14.40;;;8.32;;
4466;SDS011;2246;42.664;23.278;2022-09-03T04:50:53;12.77;;;7.80;;
4466;SDS011;2246;42.664;23.278;2022-09-03T04:53:20;11.40;;;7.93;;
4466;SDS011;2246;42.664;23.278;2022-09-03T04:55:46;12.82;;;7.60;;
4466;SDS011;2246;42.664;23.278;2022-09-03T04:58:13;11.70;;;7.82;;
4466;SDS011;2246;42.664;23.278;2022-09-03T05:00:39;15.55;;;10.48;;
4466;SDS011;2246;42.664;23.278;2022-09-03T05:03:05;11.13;;;7.55;;
4466;SDS011;2246;42.664;23.278;2022-09-03T05:05:31;16.20;;;7.53;;
4466;SDS011;2246;42.664;23.278;2022-09-03T05:07:58;13.27;;;8.02;;
4466;SDS011;2246;42.664;23.278;2022-09-03T05:10:25;10.48;;;6.78;;
4466;SDS011;2246;42.664;23.278;2022-09-03T05:12:59;12.02;;;7.68;;
4466;SDS011;2246;42.664;23.278;2022-09-03T05:15:25;11.05;;;7.95;;
4466;SDS011;2246;42.664;23.278;2022-09-03T05:17:55;14.27;;;8.70;;
4466;SDS011;2246;42.664;23.278;2022-09-03T05:20:21;9.68;;;7.53;;
4466;SDS011;2246;42.664;23.278;2022-09-03T05:22:49;10.75;;;7.50;;
4466;SDS011;2246;42.664;23.278;2022-09-03T05:25:15;8.55;;;6.32;;
4466;SDS011;2246;42.664;23.278;2022-09-03T05:27:41;9.93;;;6.57;;
4466;SDS011;2246;42.664;23.278;2022-09-03T05:30:07;9.80;;;6.75;;
4466;SDS011;2246;42.664;23.278;2022-09-03T05:32:33;13.27;;;7.55;;
4466;SDS011;2246;42.664;23.278;2022-09-03T05:35:00;8.60;;;5.85;;
4466;SDS011;2246;42.664;23.278;2022-09-03T05:37:26;11.25;;;7.07;;
4466;SDS011;2246;42.664;23.278;2022-09-03T05:39:52;8.13;;;6.40;;
4466;SDS011;2246;42.664;23.278;2022-09-03T05:42:18;11.40;;;7.00;;
4466;SDS011;2246;42.664;23.278;2022-09-03T05:44:46;12.07;;;6.30;;
4466;SDS011;2246;42.664;23.278;2022-09-03T05:47:13;8.30;;;5.40;;
4466;SDS011;2246;42.664;23.278;2022-09-03T05:49:40;8.65;;;6.25;;
4466;SDS011;2246;42.664;23.278;2022-09-03T05:52:06;9.55;;;7.05;;
4466;SDS011;2246;42.664;23.278;2022-09-03T05:54:34;7.85;;;5.28;;
4466;SDS011;2246;42.664;23.278;2022-09-03T05:57:00;9.23;;;6.07;;
4466;SDS011;2246;42.664;23.278;2022-09-03T05:59:26;9.88;;;5.78;;
4466;SDS011;2246;42.664;23.278;2022-09-03T06:01:52;7.32;;;5.63;;
4466;SDS011;2246;42.664;23.278;2022-09-03T06:04:18;12.73;;;5.25;;
4466;SDS011;2246;42.664;23.278;2022-09-03T06:06:45;12.18;;;6.13;;
4466;SDS011;2246;42.664;23.278;2022-09-03T06:09:12;9.32;;;5.13;;
4466;SDS011;2246;42.664;23.278;2022-09-03T06:11:39;10.05;;;5.35;;
4466;SDS011;2246;42.664;23.278;2022-09-03T06:14:07;15.13;;;5.90;;
4466;SDS011;2246;42.664;23.278;2022-09-03T06:16:37;8.18;;;5.70;;
4466;SDS011;2246;42.664;23.278;2022-09-03T06:19:04;8.52;;;5.30;;
4466;SDS011;2246;42.664;23.278;2022-09-03T06:21:37;11.30;;;5.28;;
4466;SDS011;2246;42.664;23.278;2022-09-03T06:24:11;7.28;;;5.88;;
4466;SDS011;2246;42.664;23.278;2022-09-03T06:26:37;7.07;;;5.82;;
4466;SDS011;2246;42.664;23.278;2022-09-03T06:29:04;8.73;;;5.13;;
4466;SDS011;2246;42.664;23.278;2022-09-03T06:31:30;5.75;;;5.03;;
4466;SDS011;2246;42.664;23.278;2022-09-03T06:33:56;5.70;;;4.90;;
4466;SDS011;2246;42.664;23.278;2022-09-03T06:36:23;7.22;;;5.93;;
4466;SDS011;2246;42.664;23.278;2022-09-03T06:38:51;8.23;;;5.85;;
4466;SDS011;2246;42.664;23.278;2022-09-03T06:41:18;11.98;;;6.55;;
4466;SDS011;2246;42.664;23.278;2022-09-03T06:43:45;12.45;;;6.68;;
4466;SDS011;2246;42.664;23.278;2022-09-03T06:46:12;10.82;;;6.35;;
4466;SDS011;2246;42.664;23.278;2022-09-03T06:48:38;6.82;;;5.15;;
4466;SDS011;2246;42.664;23.278;2022-09-03T06:53:32;11.98;;;7.00;;
4466;SDS011;2246;42.664;23.278;2022-09-03T06:55:59;8.98;;;6.15;;
4466;SDS011;2246;42.664;23.278;2022-09-03T06:58:44;9.35;;;6.43;;
4466;SDS011;2246;42.664;23.278;2022-09-03T07:01:16;10.82;;;6.32;;
4466;SDS011;2246;42.664;23.278;2022-09-03T07:03:43;7.35;;;5.95;;
4466;SDS011;2246;42.664;23.278;2022-09-03T07:06:13;9.90;;;7.30;;
4466;SDS011;2246;42.664;23.278;2022-09-03T07:08:40;7.78;;;5.57;;
4466;SDS011;2246;42.664;23.278;2022-09-03T07:11:10;11.57;;;6.30;;
4466;SDS011;2246;42.664;23.278;2022-09-03T07:13:38;8.68;;;6.88;;
4466;SDS011;2246;42.664;23.278;2022-09-03T07:18:31;8.32;;;6.20;;
4466;SDS011;2246;42.664;23.278;2022-09-03T07:21:01;8.75;;;5.38;;
4466;SDS011;2246;42.664;23.278;2022-09-03T07:23:29;8.43;;;5.93;;
4466;SDS011;2246;42.664;23.278;2022-09-03T07:25:56;7.80;;;6.03;;
4466;SDS011;2246;42.664;23.278;2022-09-03T07:28:22;6.37;;;4.97;;
4466;SDS011;2246;42.664;23.278;2022-09-03T07:30:50;6.88;;;5.40;;
4466;SDS011;2246;42.664;23.278;2022-09-03T07:33:16;7.53;;;5.60;;
4466;SDS011;2246;42.664;23.278;2022-09-03T07:35:43;6.88;;;5.78;;
4466;SDS011;2246;42.664;23.278;2022-09-03T07:38:09;10.30;;;5.95;;
4466;SDS011;2246;42.664;23.278;2022-09-03T07:40:35;7.45;;;6.10;;
4466;SDS011;2246;42.664;23.278;2022-09-03T07:45:29;8.38;;;6.28;;
4466;SDS011;2246;42.664;23.278;2022-09-03T07:47:57;7.28;;;6.03;;
4466;SDS011;2246;42.664;23.278;2022-09-03T07:50:24;6.45;;;5.55;;
4466;SDS011;2246;42.664;23.278;2022-09-03T07:52:56;7.22;;;5.80;;
4466;SDS011;2246;42.664;23.278;2022-09-03T07:55:23;6.53;;;5.60;;
4466;SDS011;2246;42.664;23.278;2022-09-03T07:57:49;6.35;;;5.30;;
4466;SDS011;2246;42.664;23.278;2022-09-03T08:00:15;5.95;;;5.25;;
4466;SDS011;2246;42.664;23.278;2022-09-03T08:02:42;6.53;;;4.85;;
4466;SDS011;2246;42.664;23.278;2022-09-03T08:05:08;6.95;;;5.63;;
4466;SDS011;2246;42.664;23.278;2022-09-03T08:07:34;12.98;;;5.35;;
4466;SDS011;2246;42.664;23.278;2022-09-03T08:10:00;5.95;;;4.93;;
4466;SDS011;2246;42.664;23.278;2022-09-03T08:12:26;6.30;;;5.07;;
4466;SDS011;2246;42.664;23.278;2022-09-03T08:14:53;6.90;;;5.15;;
4466;SDS011;2246;42.664;23.278;2022-09-03T08:17:21;7.30;;;5.22;;
4466;SDS011;2246;42.664;23.278;2022-09-03T08:19:47;7.90;;;5.95;;
4466;SDS011;2246;42.664;23.278;2022-09-03T08:22:13;6.47;;;5.07;;
4466;SDS011;2246;42.664;23.278;2022-09-03T08:24:39;6.28;;;4.95;;
4466;SDS011;2246;42.664;23.278;2022-09-03T08:27:06;6.03;;;5.40;;
4466;SDS011;2246;42.664;23.278;2022-09-03T08:29:32;9.63;;;5.63;;
4466;SDS011;2246;42.664;23.278;2022-09-03T08:31:58;7.57;;;4.95;;
4466;SDS011;2246;42.664;23.278;2022-09-03T08:34:24;6.50;;;4.63;;
4466;SDS011;2246;42.664;23.278;2022-09-03T08:36:50;6.15;;;5.50;;
4466;SDS011;2246;42.664;23.278;2022-09-03T08:39:17;6.28;;;5.65;;
4466;SDS011;2246;42.664;23.278;2022-09-03T08:47:01;6.28;;;5.05;;
4466;SDS011;2246;42.664;23.278;2022-09-03T08:49:38;8.68;;;6.68;;
4466;SDS011;2246;42.664;23.278;2022-09-03T08:52:17;6.13;;;5.07;;
4466;SDS011;2246;42.664;23.278;2022-09-03T08:54:45;5.60;;;4.97;;
4466;SDS011;2246;42.664;23.278;2022-09-03T08:57:11;5.05;;;4.40;;
4466;SDS011;2246;42.664;23.278;2022-09-03T08:59:39;5.85;;;5.25;;
4466;SDS011;2246;42.664;23.278;2022-09-03T09:02:21;7.70;;;5.82;;
4466;SDS011;2246;42.664;23.278;2022-09-03T09:05:04;6.88;;;5.50;;
4466;SDS011;2246;42.664;23.278;2022-09-03T09:07:41;6.88;;;6.18;;
4466;SDS011;2246;42.664;23.278;2022-09-03T09:12:40;6.22;;;5.18;;
4466;SDS011;2246;42.664;23.278;2022-09-03T09:15:42;6.25;;;5.45;;
4466;SDS011;2246;42.664;23.278;2022-09-03T09:18:19;10.90;;;5.40;;
4466;SDS011;2246;42.664;23.278;2022-09-03T09:20:48;6.30;;;5.03;;
4466;SDS011;2246;42.664;23.278;2022-09-03T09:25:47;8.68;;;5.43;;
4466;SDS011;2246;42.664;23.278;2022-09-03T09:28:24;6.20;;;5.43;;
4466;SDS011;2246;42.664;23.278;2022-09-03T09:30:52;6.75;;;4.40;;
4466;SDS011;2246;42.664;23.278;2022-09-03T09:33:19;5.47;;;4.88;;
4466;SDS011;2246;42.664;23.278;2022-09-03T09:35:45;7.40;;;4.53;;
4466;SDS011;2246;42.664;23.278;2022-09-03T09:38:11;6.65;;;4.50;;
4466;SDS011;2246;42.664;23.278;2022-09-03T09:40:42;4.45;;;4.05;;
4466;SDS011;2246;42.664;23.278;2022-09-03T09:43:15;5.15;;;3.95;;
4466;SDS011;2246;42.664;23.278;2022-09-03T09:45:45;6.10;;;5.07;;
4466;SDS011;2246;42.664;23.278;2022-09-03T09:48:15;13.23;;;5.15;;
4466;SDS011;2246;42.664;23.278;2022-09-03T09:50:43;6.00;;;4.90;;
4466;SDS011;2246;42.664;23.278;2022-09-03T09:53:10;7.68;;;5.68;;
4466;SDS011;2246;42.664;23.278;2022-09-03T09:55:57;5.63;;;4.97;;
4466;SDS011;2246;42.664;23.278;2022-09-03T09:58:27;5.95;;;5.00;;
4466;SDS011;2246;42.664;23.278;2022-09-03T10:03:23;8.88;;;5.07;;
4466;SDS011;2246;42.664;23.278;2022-09-03T10:06:00;9.85;;;5.65;;
4466;SDS011;2246;42.664;23.278;2022-09-03T10:08:47;10.43;;;5.82;;
4466;SDS011;2246;42.664;23.278;2022-09-03T10:11:13;9.27;;;5.05;;
4466;SDS011;2246;42.664;23.278;2022-09-03T10:13:40;5.85;;;5.15;;
4466;SDS011;2246;42.664;23.278;2022-09-03T10:18:50;6.40;;;5.10;;
4466;SDS011;2246;42.664;23.278;2022-09-03T10:26:43;6.05;;;5.45;;
4466;SDS011;2246;42.664;23.278;2022-09-03T10:29:11;5.75;;;4.57;;
4466;SDS011;2246;42.664;23.278;2022-09-03T10:52:26;5.50;;;4.10;;
4466;SDS011;2246;42.664;23.278;2022-09-03T10:55:03;6.70;;;4.53;;
4466;SDS011;2246;42.664;23.278;2022-09-03T10:57:39;5.25;;;4.68;;
4466;SDS011;2246;42.664;23.278;2022-09-03T11:00:08;5.90;;;4.23;;
4466;SDS011;2246;42.664;23.278;2022-09-03T11:05:41;11.85;;;4.38;;
4466;SDS011;2246;42.664;23.278;2022-09-03T11:08:16;5.45;;;4.72;;
4466;SDS011;2246;42.664;23.278;2022-09-03T11:10:51;4.85;;;4.35;;
4466;SDS011;2246;42.664;23.278;2022-09-03T11:13:21;4.82;;;4.30;;
4466;SDS011;2246;42.664;23.278;2022-09-03T11:15:57;6.43;;;4.10;;
4466;SDS011;2246;42.664;23.278;2022-09-03T11:19:10;9.13;;;4.53;;
4466;SDS011;2246;42.664;23.278;2022-09-03T11:21:11;9.95;;;4.65;;
4466;SDS011;2246;42.664;23.278;2022-09-03T11:26:06;6.07;;;4.90;;
4466;SDS011;2246;42.664;23.278;2022-09-03T11:34:05;4.80;;;4.30;;
4466;SDS011;2246;42.664;23.278;2022-09-03T11:38:58;5.00;;;4.50;;
4466;SDS011;2246;42.664;23.278;2022-09-03T11:41:25;5.50;;;4.30;;
4466;SDS011;2246;42.664;23.278;2022-09-03T11:43:52;8.07;;;6.00;;
4466;SDS011;2246;42.664;23.278;2022-09-03T11:54:04;12.57;;;5.00;;
4466;SDS011;2246;42.664;23.278;2022-09-03T11:56:31;5.63;;;5.03;;
4466;SDS011;2246;42.664;23.278;2022-09-03T11:59:05;6.95;;;5.22;;
4466;SDS011;2246;42.664;23.278;2022-09-03T12:04:16;7.60;;;4.38;;
4466;SDS011;2246;42.664;23.278;2022-09-03T12:12:02;8.73;;;3.92;;
4466;SDS011;2246;42.664;23.278;2022-09-03T12:14:39;5.05;;;3.95;;
4466;SDS011;2246;42.664;23.278;2022-09-03T12:19:54;4.20;;;3.60;;
4466;SDS011;2246;42.664;23.278;2022-09-03T12:22:21;5.95;;;3.58;;
4466;SDS011;2246;42.664;23.278;2022-09-03T12:24:48;5.82;;;3.33;;
4466;SDS011;2246;42.664;23.278;2022-09-03T12:27:18;4.65;;;3.97;;
4466;SDS011;2246;42.664;23.278;2022-09-03T12:29:51;4.85;;;4.28;;
4466;SDS011;2246;42.664;23.278;2022-09-03T12:32:20;12.27;;;4.85;;
4466;SDS011;2246;42.664;23.278;2022-09-03T12:34:46;11.77;;;4.90;;
4466;SDS011;2246;42.664;23.278;2022-09-03T12:37:20;6.03;;;4.72;;
4466;SDS011;2246;42.664;23.278;2022-09-03T12:39:54;5.45;;;4.50;;
4466;SDS011;2246;42.664;23.278;2022-09-03T12:42:27;7.05;;;4.82;;
4466;SDS011;2246;42.664;23.278;2022-09-03T12:44:54;8.18;;;4.78;;
4466;SDS011;2246;42.664;23.278;2022-09-03T12:47:21;6.10;;;4.72;;
4466;SDS011;2246;42.664;23.278;2022-09-03T12:49:48;12.27;;;4.90;;
4466;SDS011;2246;42.664;23.278;2022-09-03T12:52:28;7.82;;;4.43;;
4466;SDS011;2246;42.664;23.278;2022-09-03T12:57:29;6.63;;;4.68;;
4466;SDS011;2246;42.664;23.278;2022-09-03T12:59:57;7.75;;;4.57;;
4466;SDS011;2246;42.664;23.278;2022-09-03T13:02:29;6.15;;;5.35;;
4466;SDS011;2246;42.664;23.278;2022-09-03T13:04:57;6.82;;;4.97;;
4466;SDS011;2246;42.664;23.278;2022-09-03T13:07:26;6.72;;;4.78;;
4466;SDS011;2246;42.664;23.278;2022-09-03T13:09:54;6.57;;;5.20;;
4466;SDS011;2246;42.664;23.278;2022-09-03T13:12:27;6.85;;;4.82;;
4466;SDS011;2246;42.664;23.278;2022-09-03T13:14:54;6.75;;;5.40;;
4466;SDS011;2246;42.664;23.278;2022-09-03T13:17:26;6.60;;;4.53;;
4466;SDS011;2246;42.664;23.278;2022-09-03T13:20:45;5.28;;;4.55;;
4466;SDS011;2246;42.664;23.278;2022-09-03T13:36:01;5.43;;;3.63;;
4466;SDS011;2246;42.664;23.278;2022-09-03T13:41:06;5.78;;;3.50;;
4466;SDS011;2246;42.664;23.278;2022-09-03T13:43:46;4.72;;;3.63;;
4466;SDS011;2246;42.664;23.278;2022-09-03T13:46:26;4.18;;;3.42;;
4466;SDS011;2246;42.664;23.278;2022-09-03T13:49:02;8.32;;;3.80;;
4466;SDS011;2246;42.664;23.278;2022-09-03T13:51:54;3.63;;;3.33;;
4466;SDS011;2246;42.664;23.278;2022-09-03T13:54:32;4.63;;;3.65;;
4466;SDS011;2246;42.664;23.278;2022-09-03T14:08:19;4.18;;;3.33;;
4466;SDS011;2246;42.664;23.278;2022-09-03T14:10:56;4.63;;;3.80;;
4466;SDS011;2246;42.664;23.278;2022-09-03T14:13:28;4.70;;;3.90;;
4466;SDS011;2246;42.664;23.278;2022-09-03T14:18:26;5.03;;;4.47;;
4466;SDS011;2246;42.664;23.278;2022-09-03T14:21:00;6.78;;;4.85;;
4466;SDS011;2246;42.664;23.278;2022-09-03T14:23:35;5.07;;;4.28;;
4466;SDS011;2246;42.664;23.278;2022-09-03T14:26:05;5.47;;;3.83;;
4466;SDS011;2246;42.664;23.278;2022-09-03T14:28:36;4.25;;;3.60;;
4466;SDS011;2246;42.664;23.278;2022-09-03T14:36:28;5.38;;;3.92;;
4466;SDS011;2246;42.664;23.278;2022-09-03T14:39:02;7.00;;;4.47;;
4466;SDS011;2246;42.664;23.278;2022-09-03T14:47:13;5.05;;;3.78;;
4466;SDS011;2246;42.664;23.278;2022-09-03T15:00:03;4.60;;;3.20;;
4466;SDS011;2246;42.664;23.278;2022-09-03T15:10:17;6.05;;;3.60;;
4466;SDS011;2246;42.664;23.278;2022-09-03T15:18:26;5.07;;;3.58;;
4466;SDS011;2246;42.664;23.278;2022-09-03T15:31:56;4.25;;;3.47;;
4466;SDS011;2246;42.664;23.278;2022-09-03T15:36:54;6.38;;;3.80;;
4466;SDS011;2246;42.664;23.278;2022-09-03T15:39:23;3.80;;;3.30;;
4466;SDS011;2246;42.664;23.278;2022-09-03T15:44:18;5.72;;;4.28;;
4466;SDS011;2246;42.664;23.278;2022-09-03T15:46:49;8.60;;;4.35;;
4466;SDS011;2246;42.664;23.278;2022-09-03T15:52:08;5.30;;;4.35;;
4466;SDS011;2246;42.664;23.278;2022-09-03T15:54:42;8.40;;;4.82;;
4466;SDS011;2246;42.664;23.278;2022-09-03T15:57:12;6.13;;;4.30;;
4466;SDS011;2246;42.664;23.278;2022-09-03T16:02:19;5.10;;;4.20;;
4466;SDS011;2246;42.664;23.278;2022-09-03T16:12:40;5.73;;;4.37;;
4466;SDS011;2246;42.664;23.278;2022-09-03T16:15:14;7.20;;;4.68;;
4466;SDS011;2246;42.664;23.278;2022-09-03T16:17:51;4.78;;;4.28;;
4466;SDS011;2246;42.664;23.278;2022-09-03T16:20:21;5.30;;;4.30;;
4466;SDS011;2246;42.664;23.278;2022-09-03T16:25:50;7.95;;;4.60;;
4466;SDS011;2246;42.664;23.278;2022-09-03T16:28:28;7.18;;;4.97;;
4466;SDS011;2246;42.664;23.278;2022-09-03T16:38:42;7.38;;;5.65;;
4466;SDS011;2246;42.664;23.278;2022-09-03T16:51:50;9.68;;;6.30;;
4466;SDS011;2246;42.664;23.278;2022-09-03T16:54:22;8.20;;;6.32;;
4466;SDS011;2246;42.664;23.278;2022-09-03T16:57:01;7.60;;;6.13;;
4466;SDS011;2246;42.664;23.278;2022-09-03T17:25:02;11.43;;;5.72;;
4466;SDS011;2246;42.664;23.278;2022-09-03T17:30:20;10.48;;;5.70;;
4466;SDS011;2246;42.664;23.278;2022-09-03T17:37:55;9.38;;;6.00;;
4466;SDS011;2246;42.664;23.278;2022-09-03T17:40:27;8.40;;;5.80;;
4466;SDS011;2246;42.664;23.278;2022-09-03T17:45:39;10.25;;;6.43;;
4466;SDS011;2246;42.664;23.278;2022-09-03T17:48:20;7.50;;;5.85;;
4466;SDS011;2246;42.664;23.278;2022-09-03T17:53:21;12.43;;;6.05;;
4466;SDS011;2246;42.664;23.278;2022-09-03T17:56:00;9.43;;;6.20;;
4466;SDS011;2246;42.664;23.278;2022-09-03T18:01:19;7.97;;;6.07;;
4466;SDS011;2246;42.664;23.278;2022-09-03T18:03:51;7.53;;;6.30;;
4466;SDS011;2246;42.664;23.278;2022-09-03T18:14:21;7.00;;;5.50;;
4466;SDS011;2246;42.664;23.278;2022-09-03T18:17:08;8.52;;;6.18;;
4466;SDS011;2246;42.664;23.278;2022-09-03T18:22:23;9.43;;;6.40;;
4466;SDS011;2246;42.664;23.278;2022-09-03T18:27:55;7.60;;;6.07;;
4466;SDS011;2246;42.664;23.278;2022-09-03T18:30:40;9.98;;;6.40;;
4466;SDS011;2246;42.664;23.278;2022-09-03T18:33:25;14.48;;;6.55;;
4466;SDS011;2246;42.664;23.278;2022-09-03T18:36:11;9.30;;;6.05;;
4466;SDS011;2246;42.664;23.278;2022-09-03T18:54:24;11.68;;;7.68;;
4466;SDS011;2246;42.664;23.278;2022-09-03T18:57:24;12.95;;;7.90;;
4466;SDS011;2246;42.664;23.278;2022-09-03T19:00:13;15.07;;;7.90;;
4466;SDS011;2246;42.664;23.278;2022-09-03T19:11:34;14.13;;;8.68;;
4466;SDS011;2246;42.664;23.278;2022-09-03T19:17:17;11.68;;;8.27;;
4466;SDS011;2246;42.664;23.278;2022-09-03T19:22:51;13.65;;;8.30;;
4466;SDS011;2246;42.664;23.278;2022-09-03T19:25:36;13.82;;;8.80;;
4466;SDS011;2246;42.664;23.278;2022-09-03T19:28:21;10.77;;;7.82;;
4466;SDS011;2246;42.664;23.278;2022-09-03T19:37:12;18.65;;;8.20;;
4466;SDS011;2246;42.664;23.278;2022-09-03T19:42:46;11.65;;;7.50;;
4466;SDS011;2246;42.664;23.278;2022-09-03T19:54:24;11.82;;;8.18;;
4466;SDS011;2246;42.664;23.278;2022-09-03T19:57:10;17.00;;;7.88;;
4466;SDS011;2246;42.664;23.278;2022-09-03T19:59:56;12.93;;;8.55;;
4466;SDS011;2246;42.664;23.278;2022-09-03T20:02:41;14.98;;;8.45;;
4466;SDS011;2246;42.664;23.278;2022-09-03T20:08:14;13.82;;;8.18;;
4466;SDS011;2246;42.664;23.278;2022-09-03T20:11:00;14.20;;;8.73;;
4466;SDS011;2246;42.664;23.278;2022-09-03T20:13:27;15.55;;;8.45;;
4466;SDS011;2246;42.664;23.278;2022-09-03T20:16:18;11.27;;;7.82;;
4466;SDS011;2246;42.664;23.278;2022-09-03T20:26:26;13.25;;;8.88;;
4466;SDS011;2246;42.664;23.278;2022-09-03T20:31:30;13.95;;;8.93;;
4466;SDS011;2246;42.664;23.278;2022-09-03T20:34:06;17.85;;;10.73;;
4466;SDS011;2246;42.664;23.278;2022-09-03T20:54:27;26.95;;;14.65;;
4466;SDS011;2246;42.664;23.278;2022-09-03T21:07:28;30.65;;;16.38;;
4466;SDS011;2246;42.664;23.278;2022-09-03T21:18:00;39.63;;;20.60;;
4466;SDS011;2246;42.664;23.278;2022-09-03T21:23:43;21.33;;;13.60;;
4466;SDS011;2246;42.664;23.278;2022-09-03T21:30:58;55.90;;;25.60;;
4466;SDS011;2246;42.664;23.278;2022-09-03T21:33:26;59.75;;;27.80;;
4466;SDS011;2246;42.664;23.278;2022-09-03T21:35:53;60.08;;;26.75;;
4466;SDS011;2246;42.664;23.278;2022-09-03T21:38:24;58.80;;;26.70;;
4466;SDS011;2246;42.664;23.278;2022-09-03T21:46:22;69.63;;;30.27;;
4466;SDS011;2246;42.664;23.278;2022-09-03T21:48:51;69.72;;;29.85;;
4466;SDS011;2246;42.664;23.278;2022-09-03T21:51:30;53.30;;;26.35;;
4466;SDS011;2246;42.664;23.278;2022-09-03T21:54:09;50.72;;;24.50;;
4466;SDS011;2246;42.664;23.278;2022-09-03T21:56:49;32.65;;;18.35;;
4466;SDS011;2246;42.664;23.278;2022-09-03T22:04:45;19.30;;;12.35;;
4466;SDS011;2246;42.664;23.278;2022-09-03T22:10:12;19.13;;;11.50;;
4466;SDS011;2246;42.664;23.278;2022-09-03T22:15:07;20.20;;;10.98;;
4466;SDS011;2246;42.664;23.278;2022-09-03T22:17:40;19.83;;;12.50;;
4466;SDS011;2246;42.664;23.278;2022-09-03T22:20:11;30.00;;;15.82;;
4466;SDS011;2246;42.664;23.278;2022-09-03T22:25:50;47.17;;;24.63;;
4466;SDS011;2246;42.664;23.278;2022-09-03T22:30:52;51.75;;;25.95;;
4466;SDS011;2246;42.664;23.278;2022-09-03T22:42:05;75.68;;;37.67;;
4466;SDS011;2246;42.664;23.278;2022-09-03T22:46:54;51.58;;;28.10;;
4466;SDS011;2246;42.664;23.278;2022-09-03T22:56:59;56.67;;;30.13;;